createdAt,value
2022-09-22T00:00:23.550Z,100662.78
2022-09-22T00:03:11.966Z,100674.06
2022-09-22T00:06:03.394Z,100665.53
2022-09-22T00:08:54.419Z,100669.91
2022-09-22T00:11:44.490Z,100666.47
2022-09-22T00:14:32.932Z,100669.97
2022-09-22T00:17:23.228Z,100666.59
2022-09-22T00:20:13.866Z,100664.91
2022-09-22T00:23:03.536Z,100667.66
2022-09-22T00:25:51.944Z,100662.41
2022-09-22T00:28:41.508Z,100660.69
2022-09-22T00:31:30.350Z,100664.19
2022-09-22T00:34:20.829Z,100663.34
2022-09-22T00:37:09.202Z,100676.19
2022-09-22T00:39:59.147Z,100658.22
2022-09-22T00:42:47.529Z,100656.53
2022-09-22T00:45:35.875Z,100666.94
2022-09-22T00:48:25.136Z,100663.56
2022-09-22T00:51:14.783Z,100668.78
2022-09-22T00:54:05.028Z,100661.94
2022-09-22T00:56:57.939Z,100664.59
2022-09-22T00:59:46.601Z,100656.06
2022-09-22T01:02:35.071Z,100659.56
2022-09-22T01:05:24.511Z,100661.34
2022-09-22T01:08:13.116Z,100651.00
2022-09-22T01:11:01.564Z,100659.72
2022-09-22T01:13:57.731Z,100643.41
2022-09-22T01:16:50.608Z,100634.84
2022-09-22T01:20:28.673Z,100642.63
2022-09-22T01:23:48.490Z,100632.34
2022-09-22T01:26:59.234Z,100641.09
2022-09-22T01:30:26.418Z,100634.25
2022-09-22T01:33:31.626Z,100637.75
2022-09-22T01:36:24.994Z,100633.56
2022-09-22T01:39:15.937Z,100631.94
2022-09-22T01:42:06.846Z,100629.41
2022-09-22T01:44:57.006Z,100623.44
2022-09-22T01:47:48.721Z,100625.22
2022-09-22T01:50:40.581Z,100629.59
2022-09-22T01:53:32.048Z,100633.97
2022-09-22T01:56:20.723Z,100634.06
2022-09-22T01:59:09.190Z,100626.22
2022-09-22T02:02:00.021Z,100628.88
2022-09-22T02:04:53.257Z,100627.94
2022-09-22T02:07:43.498Z,100617.53
2022-09-22T02:10:33.795Z,100624.34
2022-09-22T02:13:22.155Z,100614.88
2022-09-22T02:16:11.725Z,100620.03
2022-09-22T02:19:12.538Z,100615.69
2022-09-22T02:22:02.956Z,100619.19
2022-09-22T02:24:51.700Z,100612.31
2022-09-22T02:27:40.096Z,100614.91
2022-09-22T02:30:28.558Z,100610.66
2022-09-22T02:33:17.004Z,100620.19
2022-09-22T02:36:13.934Z,100628.81
2022-09-22T02:39:09.768Z,100630.66
2022-09-22T02:42:16.712Z,100627.38
2022-09-22T02:45:10.410Z,100635.38
2022-09-22T02:48:00.384Z,100623.59
2022-09-22T02:50:48.767Z,100626.31
2022-09-22T02:53:37.324Z,100625.69
2022-09-22T02:56:27.176Z,100615.69
2022-09-22T02:59:15.614Z,100622.78
2022-09-22T03:02:04.102Z,100616.94
2022-09-22T03:04:52.624Z,100618.88
2022-09-22T03:07:41.051Z,100622.59
2022-09-22T03:10:29.497Z,100614.19
2022-09-22T03:13:19.257Z,100610.03
2022-09-22T03:16:07.795Z,100613.59
2022-09-22T03:18:57.409Z,100608.44
2022-09-22T03:21:45.818Z,100612.00
2022-09-22T03:24:34.242Z,100605.16
2022-09-22T03:27:22.679Z,100602.69
2022-09-22T03:30:13.837Z,100605.34
2022-09-22T03:33:02.442Z,100601.16
2022-09-22T03:35:50.819Z,100596.09
2022-09-22T03:38:39.195Z,100598.78
2022-09-22T03:41:27.614Z,100602.25
2022-09-22T03:44:16.035Z,100604.91
2022-09-22T03:47:06.204Z,100604.09
2022-09-22T03:49:54.620Z,100599.81
2022-09-22T03:52:44.926Z,100604.13
2022-09-22T03:55:34.516Z,100606.81
2022-09-22T03:58:22.931Z,100604.28
2022-09-22T04:01:11.668Z,100606.06
2022-09-22T04:04:01.518Z,100604.41
2022-09-22T04:06:50.009Z,100600.06
2022-09-22T04:09:38.461Z,100602.63
2022-09-22T04:12:26.892Z,100595.75
2022-09-22T04:15:15.426Z,100598.44
2022-09-22T04:18:03.849Z,100594.22
2022-09-22T04:20:57.953Z,100596.03
2022-09-22T04:23:46.440Z,100596.22
2022-09-22T04:26:34.873Z,100586.09
2022-09-22T04:29:23.301Z,100586.28
2022-09-22T04:32:11.693Z,100599.31
2022-09-22T04:35:00.130Z,100596.91
2022-09-22T04:37:50.860Z,100592.94
2022-09-22T04:40:39.502Z,100600.91
2022-09-22T04:43:27.987Z,100595.00
2022-09-22T04:46:16.519Z,100597.59
2022-09-22T04:49:04.987Z,100590.78
2022-09-22T04:51:53.501Z,100586.72
2022-09-22T04:54:43.260Z,100587.69
2022-09-22T04:57:31.821Z,100590.47
2022-09-22T05:00:21.550Z,100600.91
2022-09-22T05:03:10.335Z,100601.94
2022-09-22T05:05:58.829Z,100596.91
2022-09-22T05:08:47.218Z,100600.34
2022-09-22T05:11:37.085Z,100600.34
2022-09-22T05:14:26.487Z,100593.44
2022-09-22T05:17:15.063Z,100607.16
2022-09-22T05:20:04.567Z,100608.03
2022-09-22T05:22:54.681Z,100614.03
2022-09-22T05:25:44.048Z,100608.97
2022-09-22T05:28:33.802Z,100610.78
2022-09-22T05:31:22.327Z,100614.16
2022-09-22T05:34:10.836Z,100609.13
2022-09-22T05:36:59.447Z,100619.34
2022-09-22T05:39:47.799Z,100620.09
2022-09-22T05:42:40.437Z,100613.16
2022-09-22T05:45:30.342Z,100625.00
2022-09-22T05:48:18.764Z,100626.59
2022-09-22T05:51:07.147Z,100625.69
2022-09-22T05:53:55.760Z,100622.16
2022-09-22T05:56:44.217Z,100622.06
2022-09-22T05:59:32.658Z,100635.63
2022-09-22T06:02:26.148Z,100624.38
2022-09-22T06:04:55.715Z,100620.63
2022-09-22T06:07:24.243Z,100618.31
2022-09-22T06:09:52.569Z,100605.38
2022-09-22T06:12:20.747Z,100600.22
2022-09-22T06:14:48.861Z,100602.63
2022-09-22T06:17:17.223Z,100592.16
2022-09-22T06:19:49.807Z,100592.84
2022-09-22T06:22:18.302Z,100591.03
2022-09-22T06:24:46.567Z,100579.81
2022-09-22T06:27:14.681Z,100580.41
2022-09-22T06:29:42.872Z,100583.78
2022-09-22T06:32:11.295Z,100583.31
2022-09-22T06:34:39.534Z,100580.53
2022-09-22T06:37:10.875Z,100577.78
2022-09-22T06:39:38.981Z,100572.38
2022-09-22T06:42:07.352Z,100568.84
2022-09-22T06:44:36.039Z,100568.19
2022-09-22T06:47:06.204Z,100572.09
2022-09-22T06:49:34.553Z,100563.41
2022-09-22T06:52:03.720Z,100561.78
2022-09-22T06:54:34.531Z,100552.06
2022-09-22T06:57:03.240Z,100551.28
2022-09-22T06:59:31.404Z,100562.22
2022-09-22T07:01:59.685Z,100552.41
2022-09-22T07:04:27.864Z,100542.78
2022-09-22T07:06:55.916Z,100549.47
2022-09-22T07:09:24.177Z,100554.94
2022-09-22T07:11:53.965Z,100561.81
2022-09-22T07:14:22.340Z,100564.19
2022-09-22T07:16:52.438Z,100567.84
2022-09-22T07:19:20.777Z,100564.31
2022-09-22T07:21:48.937Z,100572.38
2022-09-22T07:24:17.101Z,100570.25
2022-09-22T07:26:46.510Z,100571.13
2022-09-22T07:29:16.766Z,100563.56
2022-09-22T07:31:44.877Z,100563.38
2022-09-22T07:34:14.037Z,100559.22
2022-09-22T07:36:42.232Z,100564.06
2022-09-22T07:39:11.493Z,100563.47
2022-09-22T07:41:43.542Z,100568.72
2022-09-22T07:44:30.935Z,100571.84
2022-09-22T07:47:00.516Z,100566.00
2022-09-22T07:49:28.843Z,100561.09
2022-09-22T07:51:57.613Z,100564.97
2022-09-22T07:54:26.639Z,100566.44
2022-09-22T07:56:58.361Z,100561.41
2022-09-22T07:59:27.512Z,100559.94
2022-09-22T08:01:55.940Z,100570.44
2022-09-22T08:04:26.390Z,100564.59
2022-09-22T08:06:56.260Z,100571.91
2022-09-22T08:09:25.140Z,100568.19
2022-09-22T08:11:53.559Z,100566.50
2022-09-22T08:14:22.263Z,100572.00
2022-09-22T08:16:51.649Z,100560.03
2022-09-22T08:19:20.055Z,100566.75
2022-09-22T08:21:51.515Z,100564.97
2022-09-22T08:24:21.534Z,100573.22
2022-09-22T08:26:51.195Z,100576.41
2022-09-22T08:29:19.402Z,100579.78
2022-09-22T08:31:48.122Z,100574.78
2022-09-22T08:34:17.515Z,100572.41
2022-09-22T08:36:47.279Z,100573.41
2022-09-22T08:39:18.033Z,100561.66
2022-09-22T08:41:56.275Z,100568.03
2022-09-22T08:44:25.997Z,100568.22
2022-09-22T08:46:54.438Z,100566.09
2022-09-22T08:49:43.375Z,100573.50
2022-09-22T08:52:17.595Z,100579.16
2022-09-22T08:54:47.041Z,100567.91
2022-09-22T08:57:46.130Z,100572.84
2022-09-22T09:00:15.862Z,100566.03
2022-09-22T09:02:46.197Z,100582.00
2022-09-22T09:06:01.449Z,100565.31
2022-09-22T09:09:05.262Z,100559.72
2022-09-22T09:11:55.321Z,100557.22
2022-09-22T09:14:40.307Z,100558.81
2022-09-22T09:17:11.682Z,100560.16
2022-09-22T09:19:42.243Z,100554.13
2022-09-22T09:22:17.654Z,100545.50
2022-09-22T09:27:42.504Z,100547.34
2022-09-22T09:30:14.406Z,100556.91
2022-09-22T09:32:46.866Z,100555.91
2022-09-22T09:35:15.990Z,100540.63
2022-09-22T09:37:44.555Z,100546.94
2022-09-22T09:40:18.303Z,100546.03
2022-09-22T09:42:53.866Z,100547.19
2022-09-22T09:45:24.324Z,100552.41
2022-09-22T09:48:04.883Z,100550.94
2022-09-22T09:50:33.189Z,100551.34
2022-09-22T09:53:01.477Z,100548.72
2022-09-22T09:55:29.648Z,100541.88
2022-09-22T09:58:07.886Z,100541.84
2022-09-22T10:00:35.984Z,100545.56
2022-09-22T10:03:14.506Z,100533.59
2022-09-22T10:05:43.505Z,100533.66
2022-09-22T10:08:20.081Z,100535.00
2022-09-22T10:10:48.549Z,100537.50
2022-09-22T10:13:30.808Z,100532.84
2022-09-22T10:16:21.716Z,100526.63
2022-09-22T10:18:51.444Z,100525.06
2022-09-22T10:21:20.803Z,100523.88
2022-09-22T10:23:49.557Z,100521.19
2022-09-22T10:26:23.547Z,100515.75
2022-09-22T10:29:18.169Z,100513.47
2022-09-22T10:32:07.703Z,100514.31
2022-09-22T10:34:37.223Z,100514.06
2022-09-22T10:37:08.887Z,100514.56
2022-09-22T10:39:46.076Z,100511.81
2022-09-22T10:42:33.415Z,100508.78
2022-09-22T10:45:06.221Z,100503.88
2022-09-22T10:47:51.316Z,100501.69
2022-09-22T10:50:44.741Z,100503.56
2022-09-22T10:53:39.976Z,100505.44
2022-09-22T10:56:14.729Z,100495.81
2022-09-22T10:59:01.973Z,100482.50
2022-09-22T11:02:05.900Z,100480.91
2022-09-22T11:04:44.735Z,100484.97
2022-09-22T11:07:47.654Z,100480.97
2022-09-22T11:10:42.166Z,100468.97
2022-09-22T11:13:19.479Z,100464.44
2022-09-22T11:16:06.581Z,100467.56
2022-09-22T11:18:46.694Z,100456.91
2022-09-22T11:21:23.476Z,100460.16
2022-09-22T11:24:01.675Z,100450.09
2022-09-22T11:26:46.043Z,100448.72
2022-09-22T11:29:57.140Z,100450.59
2022-09-22T11:33:04.750Z,100450.59
2022-09-22T11:36:01.641Z,100444.63
2022-09-22T11:38:47.214Z,100437.41
2022-09-22T11:41:28.086Z,100450.03
2022-09-22T11:44:23.222Z,100442.44
2022-09-22T11:47:05.564Z,100444.91
2022-09-22T11:49:45.533Z,100437.06
2022-09-22T11:52:23.575Z,100435.00
2022-09-22T11:55:23.326Z,100437.75
2022-09-22T11:57:54.378Z,100433.97
2022-09-22T12:00:22.723Z,100424.56
2022-09-22T12:02:55.435Z,100422.06
2022-09-22T12:05:26.941Z,100422.97
2022-09-22T12:08:00.491Z,100407.97
2022-09-22T12:10:34.570Z,100409.47
2022-09-22T12:13:03.102Z,100411.56
2022-09-22T12:15:35.170Z,100404.94
2022-09-22T12:18:10.815Z,100408.84
2022-09-22T12:20:54.618Z,100394.84
2022-09-22T12:23:40.343Z,100399.28
2022-09-22T12:26:10.017Z,100397.69
2022-09-22T12:28:42.917Z,100392.22
2022-09-22T12:31:14.098Z,100392.19
2022-09-22T12:33:48.429Z,100386.88
2022-09-22T12:36:17.507Z,100383.31
2022-09-22T12:38:46.995Z,100384.47
2022-09-22T12:41:18.666Z,100384.22
2022-09-22T12:43:47.322Z,100389.25
2022-09-22T12:46:24.131Z,100389.66
2022-09-22T12:48:52.369Z,100384.56
2022-09-22T12:51:34.061Z,100378.88
2022-09-22T12:54:51.302Z,100381.50
2022-09-22T12:57:30.093Z,100378.47
2022-09-22T13:00:20.598Z,100373.56
2022-09-22T13:02:49.819Z,100376.88
2022-09-22T13:05:46.500Z,100368.75
2022-09-22T13:08:25.932Z,100368.44
2022-09-22T13:11:00.519Z,100373.13
2022-09-22T13:13:46.730Z,100367.56
2022-09-22T13:16:35.491Z,100365.00
2022-09-22T13:19:04.891Z,100367.72
2022-09-22T13:21:34.383Z,100353.28
2022-09-22T13:24:04.946Z,100367.13
2022-09-22T13:26:35.879Z,100364.28
2022-09-22T13:29:10.224Z,100359.31
2022-09-22T13:31:43.336Z,100352.16
2022-09-22T13:34:29.069Z,100352.13
2022-09-22T13:37:00.710Z,100350.53
2022-09-22T13:39:31.795Z,100351.84
2022-09-22T13:42:05.888Z,100351.13
2022-09-22T13:44:35.420Z,100344.06
2022-09-22T13:47:07.299Z,100341.88
2022-09-22T13:49:40.948Z,100328.16
2022-09-22T13:52:13.448Z,100335.34
2022-09-22T13:54:41.545Z,100334.25
2022-09-22T13:57:20.821Z,100326.28
2022-09-22T13:59:49.016Z,100323.34
2022-09-22T14:02:17.208Z,100319.25
2022-09-22T14:04:52.382Z,100314.41
2022-09-22T14:07:21.952Z,100312.22
2022-09-22T14:09:50.080Z,100311.03
2022-09-22T14:12:19.511Z,100305.09
2022-09-22T14:14:47.574Z,100311.03
2022-09-22T14:17:17.578Z,100309.59
2022-09-22T14:19:47.325Z,100305.44
2022-09-22T14:22:17.709Z,100306.16
2022-09-22T14:24:49.478Z,100302.88
2022-09-22T14:27:22.834Z,100293.91
2022-09-22T14:29:52.177Z,100290.50
2022-09-22T14:32:24.975Z,100290.22
2022-09-22T14:34:57.415Z,100283.44
2022-09-22T14:37:29.009Z,100280.16
2022-09-22T14:39:59.398Z,100280.28
2022-09-22T14:42:30.642Z,100284.84
2022-09-22T14:45:21.014Z,100272.97
2022-09-22T14:47:49.888Z,100276.25
2022-09-22T14:50:20.106Z,100271.44
2022-09-22T14:52:55.845Z,100281.41
2022-09-22T14:55:31.542Z,100266.28
2022-09-22T14:58:03.737Z,100265.47
2022-09-22T15:01:00.897Z,100267.44
2022-09-22T15:03:32.758Z,100270.59
2022-09-22T15:06:07.407Z,100258.56
2022-09-22T15:08:35.472Z,100262.72
2022-09-22T15:11:03.652Z,100266.31
2022-09-22T15:13:39.912Z,100255.88
2022-09-22T15:16:08.281Z,100255.28
2022-09-22T15:18:36.687Z,100261.53
2022-09-22T15:21:10.105Z,100256.56
2022-09-22T15:23:40.965Z,100256.28
2022-09-22T15:26:15.701Z,100259.84
2022-09-22T15:28:48.366Z,100258.28
2022-09-22T15:31:26.784Z,100260.88
2022-09-22T15:33:56.084Z,100252.13
2022-09-22T15:36:25.578Z,100255.44
2022-09-22T15:38:54.326Z,100259.28
2022-09-22T15:41:22.405Z,100256.03
2022-09-22T15:43:52.015Z,100251.03
2022-09-22T15:46:28.077Z,100248.22
2022-09-22T15:48:59.750Z,100248.50
2022-09-22T15:51:27.888Z,100251.34
2022-09-22T15:53:55.981Z,100246.38
2022-09-22T15:56:24.360Z,100247.31
2022-09-22T15:58:53.798Z,100244.00
2022-09-22T16:01:22.159Z,100245.94
2022-09-22T16:03:50.341Z,100243.13
2022-09-22T16:06:19.244Z,100245.31
2022-09-22T16:08:51.558Z,100237.25
2022-09-22T16:11:29.320Z,100232.50
2022-09-22T16:14:01.073Z,100239.31
2022-09-22T16:16:29.483Z,100241.88
2022-09-22T16:18:58.447Z,100236.25
2022-09-22T16:21:29.267Z,100231.16
2022-09-22T16:24:03.007Z,100233.03
2022-09-22T16:26:33.363Z,100237.97
2022-09-22T16:29:03.341Z,100235.13
2022-09-22T16:31:31.668Z,100229.66
2022-09-22T16:34:01.517Z,100246.25
2022-09-22T16:36:31.539Z,100245.78
2022-09-22T16:39:00.214Z,100248.13
2022-09-22T16:41:29.317Z,100240.25
2022-09-22T16:43:58.150Z,100251.59
2022-09-22T16:46:28.522Z,100251.66
2022-09-22T16:48:58.416Z,100262.13
2022-09-22T16:51:26.935Z,100253.44
2022-09-22T16:53:55.056Z,100257.09
2022-09-22T16:56:24.427Z,100250.94
2022-09-22T16:58:52.803Z,100252.56
2022-09-22T17:01:20.964Z,100248.16
2022-09-22T17:03:52.383Z,100253.88
2022-09-22T17:06:23.019Z,100264.00
2022-09-22T17:08:52.877Z,100257.66
2022-09-22T17:11:21.801Z,100264.38
2022-09-22T17:13:50.705Z,100272.75
2022-09-22T17:16:21.713Z,100267.00
2022-09-22T17:18:52.777Z,100279.66
2022-09-22T17:21:22.293Z,100267.25
2022-09-22T17:23:51.404Z,100269.94
2022-09-22T17:26:20.146Z,100276.06
2022-09-22T17:28:48.296Z,100270.91
2022-09-22T17:31:16.406Z,100270.88
2022-09-22T17:33:51.296Z,100265.84
2022-09-22T17:36:40.354Z,100268.38
2022-09-22T17:39:29.360Z,100274.47
2022-09-22T17:42:18.008Z,100272.91
2022-09-22T17:45:08.258Z,100270.28
2022-09-22T17:48:14.224Z,100273.66
2022-09-22T17:51:20.064Z,100273.47
2022-09-22T17:54:35.469Z,100278.50
2022-09-22T17:57:25.352Z,100271.44
2022-09-22T18:00:15.233Z,100274.53
2022-09-22T18:03:03.715Z,100269.00
2022-09-22T18:05:53.354Z,100275.88
2022-09-22T18:08:44.771Z,100273.25
2022-09-22T18:11:35.337Z,100272.44
2022-09-22T18:14:25.112Z,100272.34
2022-09-22T18:17:13.952Z,100273.09
2022-09-22T18:20:02.994Z,100275.38
2022-09-22T18:22:51.364Z,100271.75
2022-09-22T18:25:41.317Z,100262.91
2022-09-22T18:28:31.040Z,100269.69
2022-09-22T18:31:19.419Z,100268.69
2022-09-22T18:34:08.322Z,100268.44
2022-09-22T18:36:58.046Z,100267.34
2022-09-22T18:39:46.555Z,100275.81
2022-09-22T18:42:36.531Z,100273.16
2022-09-22T18:45:27.005Z,100271.28
2022-09-22T18:48:17.276Z,100276.47
2022-09-22T18:51:06.384Z,100274.81
2022-09-22T18:53:56.704Z,100277.59
2022-09-22T18:56:46.510Z,100279.25
2022-09-22T18:59:34.899Z,100280.19
2022-09-22T19:02:24.835Z,100280.25
2022-09-22T19:05:13.317Z,100282.94
2022-09-22T19:08:02.047Z,100280.31
2022-09-22T19:10:50.859Z,100286.53
2022-09-22T19:13:39.496Z,100286.59
2022-09-22T19:16:27.911Z,100287.53
2022-09-22T19:19:17.982Z,100278.16
2022-09-22T19:22:08.777Z,100287.72
2022-09-22T19:24:57.525Z,100285.13
2022-09-22T19:27:46.459Z,100279.16
2022-09-22T19:30:35.002Z,100281.00
2022-09-22T19:33:23.471Z,100279.31
2022-09-22T19:36:13.223Z,100278.41
2022-09-22T19:39:01.780Z,100276.72
2022-09-22T19:41:50.495Z,100278.41
2022-09-22T19:44:40.091Z,100268.94
2022-09-22T19:47:28.533Z,100274.28
2022-09-22T19:50:17.047Z,100269.19
2022-09-22T19:53:06.767Z,100268.41
2022-09-22T19:55:55.116Z,100268.41
2022-09-22T19:58:44.913Z,100267.66
2022-09-22T20:01:35.377Z,100261.88
2022-09-22T20:04:23.826Z,100266.81
2022-09-22T20:07:12.245Z,100268.59
2022-09-22T20:10:02.832Z,100267.75
2022-09-22T20:12:51.395Z,100261.22
2022-09-22T20:15:39.831Z,100261.53
2022-09-22T20:18:29.704Z,100262.03
2022-09-22T20:21:18.281Z,100256.38
2022-09-22T20:24:07.793Z,100259.16
2022-09-22T20:26:57.623Z,100259.25
2022-09-22T20:29:45.995Z,100260.94
2022-09-22T20:32:34.510Z,100264.34
2022-09-22T20:35:23.082Z,100262.50
2022-09-22T20:38:11.814Z,100258.97
2022-09-22T20:41:02.582Z,100255.63
2022-09-22T20:43:52.329Z,100248.81
2022-09-22T20:46:40.876Z,100258.34
2022-09-22T20:49:29.350Z,100250.72
2022-09-22T20:52:19.664Z,100256.84
2022-09-22T20:55:09.267Z,100235.50
2022-09-22T20:57:57.988Z,100238.97
2022-09-22T21:00:50.534Z,100230.44
2022-09-22T21:03:39.143Z,100228.78
2022-09-22T21:06:27.553Z,100224.50
2022-09-22T21:09:33.575Z,100229.78
2022-09-22T21:12:25.275Z,100219.47
2022-09-22T21:15:17.199Z,100222.91
2022-09-22T21:18:06.909Z,100217.72
2022-09-22T21:20:56.754Z,100211.19
2022-09-22T21:23:45.218Z,100223.06
2022-09-22T21:26:33.684Z,100224.06
2022-09-22T21:29:22.171Z,100218.19
2022-09-22T21:32:10.547Z,100219.97
2022-09-22T21:35:00.643Z,100210.59
2022-09-22T21:37:49.104Z,100208.97
2022-09-22T21:40:37.667Z,100213.31
2022-09-22T21:43:26.191Z,100209.13
2022-09-22T21:46:16.172Z,100200.66
2022-09-22T21:49:06.831Z,100204.25
2022-09-22T21:51:56.595Z,100199.22
2022-09-22T21:54:44.970Z,100204.59
2022-09-22T21:57:33.363Z,100191.69
2022-09-22T22:00:36.813Z,100194.34
2022-09-22T22:03:33.463Z,100185.91
2022-09-22T22:06:22.848Z,100185.97
2022-09-22T22:09:15.551Z,100185.22
2022-09-22T22:12:04.119Z,100184.53
2022-09-22T22:14:52.502Z,100176.09
2022-09-22T22:17:40.919Z,100177.16
2022-09-22T22:20:31.002Z,100177.31
2022-09-22T22:23:19.469Z,100172.34
2022-09-22T22:26:13.148Z,100180.03
2022-09-22T22:29:01.490Z,100175.91
2022-09-22T22:31:50.257Z,100171.72
2022-09-22T22:34:38.645Z,100176.97
2022-09-22T22:37:27.044Z,100169.97
2022-09-22T22:40:15.549Z,100170.06
2022-09-22T22:43:05.389Z,100174.50
2022-09-22T22:45:53.886Z,100165.25
2022-09-22T22:48:42.282Z,100172.25
2022-09-22T22:51:30.832Z,100166.47
2022-09-22T22:54:19.264Z,100171.06
2022-09-22T22:57:07.645Z,100167.69
2022-09-22T22:59:58.010Z,100174.09
2022-09-22T23:02:46.402Z,100177.66
2022-09-22T23:05:39.497Z,100172.66
2022-09-22T23:08:30.796Z,100187.47
2022-09-22T23:11:23.163Z,100185.94
2022-09-22T23:14:12.707Z,100180.59
2022-09-22T23:17:02.561Z,100176.34
2022-09-22T23:19:50.958Z,100185.00
2022-09-22T23:22:39.404Z,100177.25
2022-09-22T23:25:27.836Z,100174.81
2022-09-22T23:28:16.223Z,100177.53
2022-09-22T23:31:08.426Z,100173.63
2022-09-22T23:33:58.604Z,100172.94
2022-09-22T23:36:48.307Z,100163.72
2022-09-22T23:39:36.775Z,100168.22
2022-09-22T23:42:25.226Z,100160.44
2022-09-22T23:45:13.821Z,100166.41
2022-09-22T23:48:02.727Z,100153.47
2022-09-22T23:50:54.045Z,100155.19
2022-09-22T23:53:42.433Z,100154.63
2022-09-22T23:56:30.807Z,100147.94
2022-09-22T23:59:19.156Z,100153.91
